Map

Track Data

SID SEASON NUMBER BASIN SUBBASIN NAME ISO_TIME NATURE LAT LON WMO_WIND WMO_PRES WMO_AGENCY TRACK_TYPE DIST2LAND LANDFALL IFLAG USA_AGENCY USA_ATCF_ID USA_LAT USA_LON USA_RECORD USA_STATUS USA_WIND USA_PRES USA_SSHS USA_R34_NE USA_R34_SE USA_R34_SW USA_R34_NW USA_R50_NE USA_R50_SE USA_R50_SW USA_R50_NW USA_R64_NE USA_R64_SE USA_R64_SW USA_R64_NW USA_POCI USA_ROCI USA_RMW USA_EYE TOKYO_LAT TOKYO_LON TOKYO_GRADE TOKYO_WIND TOKYO_PRES TOKYO_R50_DIR TOKYO_R50_LONG TOKYO_R50_SHORT TOKYO_R30_DIR TOKYO_R30_LONG TOKYO_R30_SHORT TOKYO_LAND CMA_LAT CMA_LON CMA_CAT CMA_WIND CMA_PRES HKO_LAT HKO_LON HKO_CAT HKO_WIND HKO_PRES NEWDELHI_LAT NEWDELHI_LON NEWDELHI_GRADE NEWDELHI_WIND NEWDELHI_PRES NEWDELHI_CI NEWDELHI_DP NEWDELHI_POCI REUNION_LAT REUNION_LON REUNION_TYPE REUNION_WIND REUNION_PRES REUNION_TNUM REUNION_CI REUNION_RMW REUNION_R34_NE REUNION_R34_SE REUNION_R34_SW REUNION_R34_NW REUNION_R50_NE REUNION_R50_SE REUNION_R50_SW REUNION_R50_NW REUNION_R64_NE REUNION_R64_SE REUNION_R64_SW REUNION_R64_NW BOM_LAT BOM_LON BOM_TYPE BOM_WIND BOM_PRES BOM_TNUM BOM_CI BOM_RMW BOM_R34_NE BOM_R34_SE BOM_R34_SW BOM_R34_NW BOM_R50_NE BOM_R50_SE BOM_R50_SW BOM_R50_NW BOM_R64_NE BOM_R64_SE BOM_R64_SW BOM_R64_NW BOM_ROCI BOM_POCI BOM_EYE BOM_POS_METHOD BOM_PRES_METHOD NADI_LAT NADI_LON NADI_CAT NADI_WIND NADI_PRES WELLINGTON_LAT WELLINGTON_LON WELLINGTON_WIND WELLINGTON_PRES DS824_LAT DS824_LON DS824_STAGE DS824_WIND DS824_PRES TD9636_LAT TD9636_LON TD9636_STAGE TD9636_WIND TD9636_PRES TD9635_LAT TD9635_LON TD9635_WIND TD9635_PRES TD9635_ROCI NEUMANN_LAT NEUMANN_LON NEUMANN_CLASS NEUMANN_WIND NEUMANN_PRES MLC_LAT MLC_LON MLC_CLASS MLC_WIND MLC_PRES USA_GUST BOM_GUST BOM_GUST_PER REUNION_GUST REUNION_GUST_PER USA_SEAHGT USA_SEARAD_NE USA_SEARAD_SE USA_SEARAD_SW USA_SEARAD_NW STORM_SPEED STORM_DIR
1973031S12184 1973 20 SP MM ELENORE 1973-01-31 00:00:00 TS -12.0000 -176.000 40 990 wellington main 385 332 ________O___O_ -1 -12.0000 -176.000 40 990 -12.0000 -176.000 TC 20 10 131
1973031S12184 1973 20 SP MM ELENORE 1973-01-31 03:00:00 TS -12.3393 -175.604 main 332 275 ________P___P_ -1 -12.3285 -175.618 43 987 -12.3501 -175.590 TC 25 10 132
1973031S12184 1973 20 SP MM ELENORE 1973-01-31 06:00:00 TS -12.6827 -175.219 main 275 234 ________P___O_ -1 -12.6654 -175.238 47 985 -12.7000 -175.200 TC 30 10 134
1973031S12184 1973 20 SP MM ELENORE 1973-01-31 09:00:00 TS -13.0348 -174.853 main 234 184 ________P___P_ -1 -13.0196 -174.864 51 982 -13.0499 -174.842 TC 32 10 136
1973031S12184 1973 20 SP MM ELENORE 1973-01-31 12:00:00 TS -13.4000 -174.500 55 980 wellington main 184 153 ________O___O_ -1 -13.4000 -174.500 55 980 -13.4000 -174.500 TC 35 10 137
1973031S12184 1973 20 SP MM ELENORE 1973-01-31 15:00:00 TS -13.7725 -174.137 main 144 127 ________P___P_ -1 -13.8099 -174.154 55 980 -13.7351 -174.120 TC 35 10 139
1973031S12184 1973 20 SP MM ELENORE 1973-01-31 18:00:00 TS -14.1650 -173.825 main 133 131 ________P___O_ -1 -14.2299 -173.851 55 980 -14.1000 -173.800 TC 35 10 148
1973031S12184 1973 20 SP MM ELENORE 1973-01-31 21:00:00 TS -14.5999 -173.602 main 140 140 ________P___P_ -1 -14.6349 -173.622 55 980 -14.5649 -173.583 TC 37 9 159
1973031S12184 1973 20 SP MM ELENORE 1973-02-01 00:00:00 TS -15.0000 -173.500 55 980 wellington main 165 165 ________O___O_ -1 -15.0000 -173.500 55 980 -15.0000 -173.500 TC 40 7 176
1973031S12184 1973 20 SP MM ELENORE 1973-02-01 03:00:00 TS -15.2865 -173.546 main 193 193 ________P___P_ -1 -15.2931 -173.537 55 980 -15.2800 -173.555 TC 42 6 199
1973031S12184 1973 20 SP MM ELENORE 1973-02-01 06:00:00 TS -15.5225 -173.687 main 224 224 ________P___O_ -1 -15.5450 -173.674 55 980 -15.5000 -173.700 TC 45 6 212
1973031S12184 1973 20 SP MM ELENORE 1973-02-01 09:00:00 TS -15.7622 -173.853 main 263 263 ________P___P_ -1 -15.7744 -173.849 55 980 -15.7500 -173.857 TC 45 6 212
1973031S12184 1973 20 SP MM ELENORE 1973-02-01 12:00:00 TS -16.0000 -174.000 55 980 wellington main 288 288 ________O___O_ -1 -16.0000 -174.000 55 980 -16.0000 -174.000 TC 45 5 204
1973031S12184 1973 20 SP MM ELENORE 1973-02-01 15:00:00 TS -16.2499 -174.080 main 313 313 ________P___P_ -1 -16.2498 -174.080 55 980 -16.2500 -174.080 TC 47 5 192
1973031S12184 1973 20 SP MM ELENORE 1973-02-01 18:00:00 TS -16.4999 -174.110 main 342 342 ________P___O_ -1 -16.4997 -174.120 55 980 -16.5000 -174.100 TC 50 5 183
1973031S12184 1973 20 SP MM ELENORE 1973-02-01 21:00:00 TS -16.7498 -174.097 main 362 362 ________P___P_ -1 -16.7497 -174.099 55 980 -16.7499 -174.095 TC 50 5 168
1973031S12184 1973 20 SP MM ELENORE 1973-02-02 00:00:00 TS -17.0000 -174.000 55 980 wellington main 388 388 ________O___O_ -1 -17.0000 -174.000 55 980 -17.0000 -174.000 TC 50 6 150
1973031S12184 1973 20 SP MM ELENORE 1973-02-02 03:00:00 TS -17.2500 -173.802 main 412 409 ________P___P_ -1 -17.2501 -173.816 55 980 -17.2500 -173.788 TC 52 7 138
1973031S12184 1973 20 SP MM ELENORE 1973-02-02 06:00:00 TS -17.5000 -173.528 main 425 425 ________P___O_ -1 -17.5001 -173.555 55 980 -17.5000 -173.500 TC 55 7 132
1973031S12184 1973 20 SP MM ELENORE 1973-02-02 09:00:00 TS -17.7500 -173.228 main 441 441 ________P___P_ -1 -17.7500 -173.241 55 980 -17.7500 -173.215 TC 52 8 130
1973031S12184 1973 20 SP MM ELENORE 1973-02-02 12:00:00 TS -18.0000 -172.900 55 980 wellington main 471 470 ________O___O_ -1 -18.0000 -172.900 55 980 -18.0000 -172.900 TC 50 8 126
1973031S12184 1973 20 SP MM ELENORE 1973-02-02 15:00:00 TS -18.2259 -172.540 main 492 492 ________P___P_ -1 -18.2017 -172.523 55 980 -18.2500 -172.557 TC 45 8 123
1973031S12184 1973 20 SP MM ELENORE 1973-02-02 18:00:00 TS -18.4554 -172.166 main 526 526 ________P___O_ -1 -18.4107 -172.133 55 980 -18.5000 -172.200 TC 40 8 123
1973031S12184 1973 20 SP MM ELENORE 1973-02-02 21:00:00 TS -18.6884 -171.794 main 550 550 ________P___P_ -1 -18.6643 -171.776 55 980 -18.7126 -171.812 TC 37 8 131
1973031S12184 1973 20 SP MM ELENORE 1973-02-03 00:00:00 TS -19.0000 -171.500 55 980 wellington main 586 586 ________O___O_ -1 -19.0000 -171.500 55 980 -19.0000 -171.500 TC 35 9 152
1973031S12184 1973 20 SP MM ELENORE 1973-02-03 03:00:00 TS -19.4533 -171.365 main 643 643 ________P___P_ -1 -19.4593 -171.383 51 982 -19.4474 -171.347 TC 32 10 171
1973031S12184 1973 20 SP MM ELENORE 1973-02-03 06:00:00 TS -20.0010 -171.323 main 700 700 ________P___O_ -1 -20.0020 -171.346 47 985 -20.0000 -171.300 TC 30 11 180
1973031S12184 1973 20 SP MM ELENORE 1973-02-03 09:00:00 TS -20.5856 -171.336 main 766 766 ________P___P_ -1 -20.5938 -171.336 43 987 -20.5774 -171.337 TC 30 12 0
1973031S12184 1973 20 SP MM ELENORE 1973-02-03 12:00:00 TS -21.2000 -171.300 40 990 wellington main 833 833 ________O___O_ -1 -21.2000 -171.300 40 990 -21.2000 -171.300 TC 30 13 167
1973031S12184 1973 20 SP MM ELENORE 1973-02-03 15:00:00 TS -21.8593 -171.015 main 915 915 ________P___P_ -1 -21.8532 -171.078 40 990 -21.8654 -170.951 TC 30 14 157
1973031S12184 1973 20 SP MM ELENORE 1973-02-03 18:00:00 TS -22.5000 -170.717 main 986 986 ________P___O_ -1 -22.5000 -170.833 40 990 -22.5000 -170.600 TC 30 13 161
1973031S12184 1973 20 SP MM ELENORE 1973-02-03 21:00:00 TS -23.0807 -170.570 main 1054 1054 ________P___P_ -1 -23.0717 -170.646 40 990 -23.0897 -170.495 TC 30 10 174
1973031S12184 1973 20 SP MM ELENORE 1973-02-04 00:00:00 TS -23.5000 -170.600 40 990 wellington main 1098 1098 ________O___O_ -1 -23.5000 -170.600 40 990 -23.5000 -170.600 TC 30 6 204
1973031S12184 1973 20 SP MM ELENORE 1973-02-04 03:00:00 TS -23.6574 -170.846 main 1117 1112 ________P___P_ -1 -23.6971 -170.794 40 990 -23.6176 -170.898 TC 30 6 253
1973031S12184 1973 20 SP MM ELENORE 1973-02-04 06:00:00 TS -23.6752 -171.217 main 1112 1109 ________P___O_ -1 -23.7505 -171.135 40 990 -23.6000 -171.300 TC 30 7 267
1973031S12184 1973 20 SP MM ELENORE 1973-02-04 09:00:00 TS -23.6892 -171.600 main 1109 1107 ________P___P_ -1 -23.7285 -171.558 40 990 -23.6499 -171.643 TC 30 7 268
1973031S12184 1973 20 SP MM ELENORE 1973-02-04 12:00:00 TS -23.7000 -172.000 40 990 wellington main 1107 1107 ________O___O_ -1 -23.7000 -172.000 40 990 -23.7000 -172.000 TC 30 7 268
1973031S12184 1973 20 SP MM ELENORE 1973-02-04 15:00:00 TS -23.7084 -172.389 main 1107 1081 ________P___P_ -1 -23.6744 -172.378 40 990 -23.7425 -172.400 TC 30 7 267
1973031S12184 1973 20 SP MM ELENORE 1973-02-04 18:00:00 TS -23.7350 -172.780 main 1081 1063 ________P___O_ -1 -23.6700 -172.760 40 990 -23.8000 -172.800 TC 30 7 263
1973031S12184 1973 20 SP MM ELENORE 1973-02-04 21:00:00 TS -23.7940 -173.140 main 1063 1043 ________P___P_ -1 -23.7557 -173.138 40 990 -23.8323 -173.143 TC 30 7 248
1973031S12184 1973 20 SP MM ELENORE 1973-02-05 00:00:00 TS -24.0000 -173.500 40 990 wellington main 1043 1033 ________O___O_ -1 -24.0000 -173.500 40 990 -24.0000 -173.500 TC 30 10 229
1973031S12184 1973 20 SP MM ELENORE 1973-02-05 03:00:00 TS -24.4239 -173.927 main 1040 1040 ________P___P_ -1 -24.4525 -173.882 40 990 -24.3953 -173.972 TC 27 13 216
1973031S12184 1973 20 SP MM ELENORE 1973-02-05 06:00:00 TS -25.0341 -174.322 main 1057 1057 ________P___O_ -1 -25.0681 -174.244 40 990 -25.0000 -174.400 TC 25 15 204
1973031S12184 1973 20 SP MM ELENORE 1973-02-05 09:00:00 TS -25.7735 -174.606 main 1103 1103 ________P___P_ -1 -25.7996 -174.560 40 990 -25.7473 -174.653 TC 25 16 195
1973031S12184 1973 20 SP MM ELENORE 1973-02-05 12:00:00 TS -26.6000 -174.800 40 990 wellington main 1161 1161 ________O___O_ -1 -26.6000 -174.800 40 990 -26.6000 -174.800 TC 25 17 190
1973031S12184 1973 20 SP MM ELENORE 1973-02-05 15:00:00 TS -27.4274 -174.946 main 1228 1214 ________P___P_ -1 -27.4123 -174.962 40 990 -27.4425 -174.930 TC 25 17 187
1973031S12184 1973 20 SP MM ELENORE 1973-02-05 18:00:00 TS -28.2885 -175.021 main 1204 1126 ________P___O_ -1 -28.2769 -175.043 40 990 -28.3000 -175.000 TC 25 17 183
1973031S12184 1973 20 SP MM ELENORE 1973-02-05 21:00:00 TS -29.1590 -175.041 main 1117 1040 ________P___P_ -1 -29.1531 -175.052 40 990 -29.1650 -175.030 TC 25 17 0
1973031S12184 1973 20 SP MM ELENORE 1973-02-06 00:00:00 TS -30.0000 -175.000 40 990 wellington main 1040 981 ________O___O_ -1 -30.0000 -175.000 40 990 -30.0000 -175.000 TC 25 16 177
1973031S12184 1973 20 SP MM ELENORE 1973-02-06 03:00:00 TS -30.7827 -174.935 main 972 916 ________P___P_ -1 -30.7929 -174.940 37 991 -30.7724 -174.930 TC 22 15 174
1973031S12184 1973 20 SP MM ELENORE 1973-02-06 06:00:00 TS -31.5234 -174.810 main 916 863 ________P___O_ -1 -31.5468 -174.820 35 993 -31.5000 -174.800 TC 20 15 170
1973031S12184 1973 20 SP MM ELENORE 1973-02-06 09:00:00 TS -32.2411 -174.635 main 870 828 ________P___P_ -1 -32.2522 -174.640 32 995 -32.2299 -174.630 TC 20 14 166
1973031S12184 1973 20 SP MM ELENORE 1973-02-06 12:00:00 TS -32.9000 -174.400 30 997 wellington main 828 806 ________O___O_ -1 -32.9000 -174.400 30 997 -32.9000 -174.400 TC 20 13 161
1973031S12184 1973 20 SP MM ELENORE 1973-02-06 15:00:00 TS -33.4824 -174.117 main 807 795 ________P___P_ -1 -33.4849 -174.104 30 997 -33.4799 -174.130 TC 20 12 155
1973031S12184 1973 20 SP MM ELENORE 1973-02-06 18:00:00 TS -34.0094 -173.782 main 797 793 ________P___O_ -1 -34.0189 -173.763 30 997 -34.0000 -173.800 TC 20 12 150
1973031S12184 1973 20 SP MM ELENORE 1973-02-06 21:00:00 TS -34.5106 -173.403 main 800 795 ________P___P_ -1 -34.5184 -173.391 30 997 -34.5028 -173.416 TC 17 12 147
1973031S12184 1973 20 SP MM ELENORE 1973-02-07 00:00:00 TS -35.0000 -173.000 30 997 wellington main 808 ________O___O_ -1 -35.0000 -173.000 30 997 -35.0000 -173.000 TC 15 12 146

Digital Typhoon Data and Search

About IBTrACS Database

This database is a web-friendly format of International Best Track Archive for Climate Stewardship (IBTrACS), a global best track data archive curated by NOAA dating back to 1842.

Updated: 2021-12-03